Time;durP1;ratioP1;P1;durP2;ratioP2;P2;SDS_P1;SDS_P2;PMS_P1;PMS_P2;Temp;Humidity;BMP_temperature;BMP_pressure;BME280_temperature;BME280_humidity;BME280_pressure;Samples;Min_cycle;Max_cycle;Signal;HPM_P1;HPM_P2
2023/09/22 00:00:59;;;;;;;2.97;1.80;;;14.60;99.90;;;;;;5054010;28;20564;-71
2023/09/22 00:03:26;;;;;;;3.45;1.77;;;14.60;99.90;;;;;;5054448;28;20040;-71
2023/09/22 00:05:52;;;;;;;3.22;2.05;;;14.60;99.90;;;;;;5054068;28;20496;-71
2023/09/22 00:08:18;;;;;;;3.17;1.98;;;14.60;99.90;;;;;;5053541;28;20044;-71
2023/09/22 00:10:44;;;;;;;3.17;2.17;;;14.60;99.90;;;;;;5071809;28;20063;-71
2023/09/22 00:13:10;;;;;;;4.47;2.17;;;14.60;99.90;;;;;;5071800;28;20041;-71
2023/09/22 00:15:36;;;;;;;6.55;2.17;;;14.50;99.90;;;;;;5071234;28;20037;-71
2023/09/22 00:18:01;;;;;;;3.28;2.17;;;14.50;99.90;;;;;;5071912;28;20044;-71
2023/09/22 00:20:27;;;;;;;3.65;2.25;;;14.50;99.90;;;;;;5071849;28;20115;-72
2023/09/22 00:22:53;;;;;;;2.80;2.20;;;14.60;99.90;;;;;;5072114;28;20037;-72
2023/09/22 00:25:19;;;;;;;3.03;2.38;;;14.60;99.90;;;;;;5072048;28;20532;-72
2023/09/22 00:27:44;;;;;;;6.40;3.22;;;14.50;99.90;;;;;;5037300;28;20052;-72
2023/09/22 00:30:10;;;;;;;4.40;2.08;;;14.50;99.90;;;;;;5071647;28;20040;-72
2023/09/22 00:32:38;;;;;;;7.47;2.45;;;14.60;99.90;;;;;;5072121;28;20036;-72
2023/09/22 00:35:05;;;;;;;4.57;2.28;;;14.60;99.90;;;;;;5071940;28;20029;-72
2023/09/22 00:37:30;;;;;;;3.95;1.83;;;14.60;99.90;;;;;;5053991;28;20059;-72
2023/09/22 00:39:56;;;;;;;2.85;1.90;;;14.60;99.90;;;;;;5071414;28;20123;-72
2023/09/22 00:42:22;;;;;;;3.72;1.55;;;14.60;99.90;;;;;;5037189;28;20052;-72
2023/09/22 00:44:47;;;;;;;4.35;1.75;;;14.60;99.90;;;;;;5071782;28;20118;-71
2023/09/22 00:47:14;;;;;;;2.00;1.50;;;14.60;99.90;;;;;;5053699;28;20068;-71
2023/09/22 00:49:41;;;;;;;6.80;2.33;;;14.60;99.90;;;;;;5071471;28;20119;-72
2023/09/22 00:52:07;;;;;;;4.03;1.90;;;14.60;99.90;;;;;;5037530;28;20380;-72
2023/09/22 00:54:33;;;;;;;3.92;1.85;;;14.60;99.90;;;;;;5053867;28;20036;-72
2023/09/22 00:57:00;;;;;;;3.47;2.20;;;14.60;99.90;;;;;;5036944;28;20052;-72
2023/09/22 00:59:26;;;;;;;8.05;3.20;;;14.60;99.90;;;;;;5071339;28;20041;-72
2023/09/22 01:01:51;;;;;;;5.65;3.17;;;14.60;99.90;;;;;;5071389;28;20050;-72
2023/09/22 01:04:19;;;;;;;5.13;3.30;;;14.60;99.90;;;;;;5071513;28;20040;-72
2023/09/22 01:06:46;;;;;;;6.88;4.75;;;14.60;99.90;;;;;;5071126;28;20519;-72
2023/09/22 01:09:13;;;;;;;6.97;4.75;;;14.60;99.90;;;;;;5052802;28;20048;-72
2023/09/22 01:11:39;;;;;;;9.77;5.88;;;14.60;99.90;;;;;;5071113;28;20044;-72
2023/09/22 01:14:06;;;;;;;12.20;6.68;;;14.60;99.90;;;;;;5071645;28;20041;-72
2023/09/22 01:16:32;;;;;;;10.95;6.78;;;14.60;99.90;;;;;;5071608;28;20041;-72
2023/09/22 01:18:58;;;;;;;15.57;8.48;;;14.60;99.90;;;;;;5053093;28;20403;-72
2023/09/22 01:21:31;;;;;;;15.27;9.27;;;14.60;99.90;;;;;;5053492;28;20163;-72
2023/09/22 01:24:00;;;;;;;15.20;10.23;;;14.60;99.90;;;;;;5071288;28;20067;-72
2023/09/22 01:26:27;;;;;;;15.32;10.13;;;14.70;99.90;;;;;;5072513;28;20095;-72
2023/09/22 01:28:52;;;;;;;16.40;10.27;;;14.70;99.90;;;;;;5075151;28;20048;-73
2023/09/22 01:31:18;;;;;;;17.75;11.68;;;14.70;99.90;;;;;;5057359;28;20040;-73
2023/09/22 01:33:47;;;;;;;16.88;11.25;;;14.70;99.90;;;;;;5057192;28;20060;-73
2023/09/22 01:36:15;;;;;;;19.25;12.52;;;14.80;99.90;;;;;;5057572;28;20047;-71
2023/09/22 01:38:41;;;;;;;21.50;11.88;;;14.70;99.90;;;;;;5067878;22;20047;-76
2023/09/22 01:41:07;;;;;;;20.23;11.95;;;14.70;99.90;;;;;;5011883;28;20439;-76
2023/09/22 01:43:33;;;;;;;21.23;12.05;;;14.70;99.90;;;;;;5012020;28;20038;-76
2023/09/22 01:45:58;;;;;;;19.98;12.07;;;14.70;99.90;;;;;;4994446;28;20049;-76
2023/09/22 01:48:24;;;;;;;19.35;12.18;;;14.70;99.90;;;;;;5010575;28;20069;-76
2023/09/22 01:50:50;;;;;;;19.85;12.20;;;14.70;99.90;;;;;;5010086;28;20080;-76
2023/09/22 01:53:16;;;;;;;19.02;12.65;;;14.60;99.90;;;;;;5010818;28;20045;-76
2023/09/22 01:55:42;;;;;;;18.77;12.68;;;14.70;99.90;;;;;;5010840;28;20489;-76
2023/09/22 01:58:08;;;;;;;17.63;12.02;;;14.70;99.90;;;;;;5010625;28;20046;-76
2023/09/22 02:00:35;;;;;;;17.23;11.27;;;14.60;99.90;;;;;;5010311;28;20481;-76
2023/09/22 02:03:01;;;;;;;21.83;13.55;;;14.70;99.90;;;;;;5010447;28;20045;-76
2023/09/22 02:05:26;;;;;;;22.15;13.27;;;14.70;99.90;;;;;;5011641;28;20042;-76
2023/09/22 02:07:52;;;;;;;23.20;14.10;;;14.70;99.90;;;;;;5010357;28;20417;-76
2023/09/22 02:10:18;;;;;;;24.42;13.80;;;14.70;99.90;;;;;;4993738;28;20485;-75
2023/09/22 02:12:44;;;;;;;21.10;14.13;;;14.70;99.90;;;;;;5010392;28;20077;-76
2023/09/22 02:15:11;;;;;;;21.50;13.60;;;14.70;99.90;;;;;;5010201;28;20045;-75
2023/09/22 02:17:41;;;;;;;20.48;13.48;;;14.80;99.90;;;;;;5010150;28;20046;-75
2023/09/22 02:20:18;;;;;;;21.67;14.80;;;14.70;99.90;;;;;;5009805;28;20049;-76
2023/09/22 02:22:55;;;;;;;22.35;14.25;;;14.70;99.90;;;;;;5010504;28;20117;-76
2023/09/22 02:25:22;;;;;;;25.98;16.05;;;14.70;99.90;;;;;;4993968;28;20125;-76
2023/09/22 02:27:49;;;;;;;22.50;14.90;;;14.70;99.90;;;;;;5010293;28;20408;-76
2023/09/22 02:30:16;;;;;;;22.83;15.20;;;14.80;99.90;;;;;;5009763;28;20050;-76
2023/09/22 02:32:44;;;;;;;24.00;15.35;;;14.70;99.90;;;;;;4995432;28;20084;-76
2023/09/22 02:35:09;;;;;;;21.33;15.23;;;14.70;99.90;;;;;;4990748;28;20045;-76
2023/09/22 02:37:36;;;;;;;21.48;14.05;;;14.70;99.90;;;;;;4989767;28;20041;-76
2023/09/22 02:40:02;;;;;;;25.98;16.25;;;14.70;99.90;;;;;;4973767;28;20548;-76
2023/09/22 02:42:28;;;;;;;24.38;16.05;;;14.70;99.90;;;;;;4974110;28;20130;-76
2023/09/22 02:44:54;;;;;;;26.35;15.85;;;14.70;99.90;;;;;;4996034;28;20113;-76
2023/09/22 02:47:20;;;;;;;23.05;15.95;;;14.70;99.90;;;;;;5006239;28;20434;-76
2023/09/22 02:49:46;;;;;;;25.50;17.67;;;14.70;99.90;;;;;;4989823;28;20118;-76
2023/09/22 02:52:12;;;;;;;21.42;15.30;;;14.70;99.90;;;;;;4990064;28;20459;-76
2023/09/22 02:54:38;;;;;;;22.85;16.15;;;14.70;99.90;;;;;;4990437;28;20070;-76
2023/09/22 02:57:03;;;;;;;23.33;16.30;;;14.70;99.90;;;;;;4990139;28;20038;-76
2023/09/22 02:59:29;;;;;;;23.73;17.35;;;14.70;99.90;;;;;;4989808;28;20046;-76
2023/09/22 03:01:57;;;;;;;25.02;16.10;;;14.70;99.90;;;;;;4989883;28;20080;-76
2023/09/22 03:04:22;;;;;;;25.60;16.30;;;14.70;99.90;;;;;;4990247;28;20046;-76
2023/09/22 03:06:48;;;;;;;27.27;18.25;;;14.60;99.90;;;;;;4998688;28;20396;-76
2023/09/22 03:09:14;;;;;;;26.05;16.67;;;14.60;99.90;;;;;;4999549;28;20045;-76
2023/09/22 03:11:40;;;;;;;25.20;15.48;;;14.60;99.90;;;;;;4990041;28;20050;-76
2023/09/22 03:14:06;;;;;;;27.52;16.35;;;14.60;99.90;;;;;;4989972;28;20049;-76
2023/09/22 03:16:31;;;;;;;27.15;17.92;;;14.60;99.90;;;;;;4991005;28;20175;-76
2023/09/22 03:18:57;;;;;;;26.10;17.30;;;14.60;99.90;;;;;;4989343;28;20076;-76
2023/09/22 03:21:26;;;;;;;27.77;16.80;;;14.60;99.90;;;;;;4989963;28;20405;-76
2023/09/22 03:23:53;;;;;;;24.98;15.57;;;14.70;99.90;;;;;;4989668;28;20057;-76
2023/09/22 03:26:19;;;;;;;27.13;17.00;;;14.60;99.90;;;;;;4989607;28;20042;-76
2023/09/22 03:28:46;;;;;;;29.73;17.92;;;14.60;99.90;;;;;;4989244;28;20053;-76
2023/09/22 03:31:11;;;;;;;25.20;16.27;;;14.60;99.90;;;;;;4973298;28;20509;-76
2023/09/22 03:33:40;;;;;;;28.33;16.95;;;14.60;99.90;;;;;;4989763;28;20044;-76
2023/09/22 03:36:12;;;;;;;25.23;16.88;;;14.60;99.90;;;;;;4989494;28;20046;-76
2023/09/22 03:38:43;;;;;;;25.70;15.57;;;14.60;99.90;;;;;;4989150;28;20038;-76
2023/09/22 03:41:08;;;;;;;25.77;15.23;;;14.60;99.90;;;;;;4973250;28;20781;-76
2023/09/22 03:43:34;;;;;;;24.83;15.27;;;14.60;99.90;;;;;;4995796;28;20036;-76
2023/09/22 03:46:01;;;;;;;24.05;15.27;;;14.50;99.90;;;;;;5000267;28;20430;-76
2023/09/22 03:48:26;;;;;;;24.05;14.55;;;14.50;99.90;;;;;;4989110;28;20494;-76
2023/09/22 03:50:53;;;;;;;22.58;14.27;;;14.40;99.90;;;;;;4989258;28;20091;-76
2023/09/22 03:53:19;;;;;;;22.20;14.63;;;14.40;99.90;;;;;;4973093;28;20035;-76
2023/09/22 03:55:44;;;;;;;25.08;14.35;;;14.40;99.90;;;;;;5042285;28;20470;-76
2023/09/22 03:58:10;;;;;;;21.08;13.77;;;14.20;99.90;;;;;;4974117;28;20042;-77
2023/09/22 04:00:37;;;;;;;20.90;13.23;;;14.20;99.90;;;;;;4989047;28;20045;-76
2023/09/22 04:03:04;;;;;;;21.45;13.55;;;14.20;99.90;;;;;;4989374;28;20042;-76
2023/09/22 04:05:29;;;;;;;21.58;13.63;;;14.10;99.90;;;;;;4989271;28;20497;-76
2023/09/22 04:07:55;;;;;;;22.40;13.35;;;14.20;99.90;;;;;;4989250;28;20137;-76
2023/09/22 04:10:21;;;;;;;23.45;13.40;;;14.10;99.90;;;;;;4988885;28;20050;-78
2023/09/22 04:12:46;;;;;;;21.05;13.40;;;14.10;99.90;;;;;;4989023;28;20042;-78
2023/09/22 04:15:12;;;;;;;25.70;13.82;;;14.10;99.90;;;;;;4973007;28;20050;-79
2023/09/22 04:17:38;;;;;;;19.83;12.77;;;14.10;99.90;;;;;;4989250;28;20035;-78
2023/09/22 04:20:08;;;;;;;25.52;14.60;;;14.10;99.90;;;;;;4988532;28;20509;-78
2023/09/22 04:22:37;;;;;;;23.13;13.38;;;14.10;99.90;;;;;;4988985;28;20417;-78
2023/09/22 04:25:11;;;;;;;25.85;13.82;;;14.10;99.90;;;;;;4972940;28;20378;-78
2023/09/22 04:27:43;;;;;;;21.13;12.85;;;14.00;99.90;;;;;;4988798;28;20042;-78
2023/09/22 04:30:15;;;;;;;22.50;13.07;;;14.10;99.90;;;;;;4988326;28;20050;-78
2023/09/22 04:32:41;;;;;;;27.27;13.13;;;14.00;99.90;;;;;;4988765;28;20521;-78
2023/09/22 04:35:07;;;;;;;25.38;15.52;;;14.10;99.90;;;;;;4988849;28;20061;-78
2023/09/22 04:37:33;;;;;;;28.15;15.88;;;14.10;99.90;;;;;;4988808;28;20038;-78
2023/09/22 04:39:59;;;;;;;30.67;16.55;;;14.10;99.90;;;;;;4988029;28;20034;-78
2023/09/22 04:42:24;;;;;;;30.17;15.60;;;14.10;99.90;;;;;;4989783;28;20053;-78
2023/09/22 04:44:51;;;;;;;32.42;17.20;;;14.10;99.90;;;;;;4989860;28;20038;-78
2023/09/22 04:47:17;;;;;;;30.85;16.48;;;14.20;99.90;;;;;;4972579;28;20476;-78
2023/09/22 04:49:43;;;;;;;30.55;15.90;;;14.10;99.90;;;;;;4972040;28;20038;-78
2023/09/22 04:52:08;;;;;;;27.25;16.02;;;14.20;99.90;;;;;;4988785;28;20069;-78
2023/09/22 04:54:34;;;;;;;28.48;16.05;;;14.20;99.90;;;;;;4988742;28;20524;-77
2023/09/22 04:57:00;;;;;;;33.80;17.35;;;14.10;99.90;;;;;;4988383;28;20042;-78
2023/09/22 04:59:25;;;;;;;37.83;19.60;;;14.10;99.90;;;;;;4971653;28;20046;-78
2023/09/22 05:01:51;;;;;;;28.80;18.30;;;14.00;99.90;;;;;;4987965;28;20635;-78
2023/09/22 05:04:16;;;;;;;32.67;18.95;;;14.00;99.90;;;;;;4988309;28;20715;-78
2023/09/22 05:06:45;;;;;;;32.83;18.40;;;14.00;99.90;;;;;;4989493;28;20042;-78
2023/09/22 05:09:11;;;;;;;39.90;20.65;;;14.00;99.90;;;;;;4988107;28;20444;-77
2023/09/22 05:11:37;;;;;;;36.38;19.70;;;14.00;99.90;;;;;;4972084;28;20129;-77
2023/09/22 05:14:06;;;;;;;36.70;19.00;;;13.90;99.90;;;;;;4988129;28;20125;-78
2023/09/22 05:16:31;;;;;;;34.92;18.45;;;14.00;99.90;;;;;;4988079;28;20623;-78
2023/09/22 05:18:57;;;;;;;33.83;19.67;;;13.90;99.90;;;;;;4987661;28;20044;-78
2023/09/22 05:21:22;;;;;;;34.17;18.55;;;13.90;99.90;;;;;;4987715;28;20092;-78
2023/09/22 05:23:48;;;;;;;35.58;19.38;;;13.90;99.90;;;;;;4988000;28;20088;-78
2023/09/22 05:26:13;;;;;;;35.50;17.55;;;13.90;99.90;;;;;;4987707;28;20494;-78
2023/09/22 05:28:42;;;;;;;38.95;18.60;;;13.90;99.90;;;;;;4987973;28;20050;-78
2023/09/22 05:31:08;;;;;;;41.92;19.55;;;13.80;99.90;;;;;;4987785;28;20129;-78
2023/09/22 05:33:35;;;;;;;39.63;20.00;;;13.80;99.90;;;;;;4971729;28;20125;-78
2023/09/22 05:36:01;;;;;;;31.27;17.98;;;13.90;99.90;;;;;;4971551;28;20043;-78
2023/09/22 05:38:27;;;;;;;42.10;19.63;;;13.80;99.90;;;;;;4987403;28;20042;-78
2023/09/22 05:40:53;;;;;;;31.60;18.15;;;13.80;99.90;;;;;;4971558;28;20117;-78
2023/09/22 05:43:22;;;;;;;36.85;18.67;;;13.80;99.90;;;;;;4971588;28;20071;-78
2023/09/22 05:45:53;;;;;;;34.53;19.58;;;13.80;99.90;;;;;;4971668;28;20042;-78
2023/09/22 05:48:19;;;;;;;35.17;18.30;;;13.80;99.90;;;;;;4987736;28;20039;-78
2023/09/22 05:50:57;;;;;;;31.88;18.85;;;13.80;99.90;;;;;;4987479;28;20069;-78
2023/09/22 05:53:26;;;;;;;37.22;20.58;;;13.80;99.90;;;;;;4971628;28;20417;-78
2023/09/22 05:56:06;;;;;;;38.63;20.45;;;13.90;99.90;;;;;;4987585;28;20042;-78
2023/09/22 05:58:32;;;;;;;37.97;20.20;;;13.80;99.90;;;;;;4987391;28;20093;-79
2023/09/22 06:01:03;;;;;;;31.67;18.55;;;13.80;99.90;;;;;;4987412;28;20435;-78
2023/09/22 06:03:28;;;;;;;38.90;21.33;;;13.80;99.90;;;;;;4987885;28;20412;-78
2023/09/22 06:05:54;;;;;;;41.85;20.70;;;13.90;99.90;;;;;;4971698;28;20030;-78
2023/09/22 06:08:20;;;;;;;36.42;20.17;;;13.80;99.90;;;;;;4971359;28;20069;-78
2023/09/22 06:10:46;;;;;;;40.92;21.20;;;13.90;99.90;;;;;;4987219;28;20491;-78
2023/09/22 06:13:11;;;;;;;39.33;21.10;;;13.90;99.90;;;;;;4988165;28;20071;-78
2023/09/22 06:15:37;;;;;;;39.70;19.77;;;13.90;99.90;;;;;;4990674;28;20046;-78
2023/09/22 06:18:04;;;;;;;37.22;20.30;;;13.90;99.90;;;;;;4990781;28;20042;-78
2023/09/22 06:20:30;;;;;;;41.45;20.60;;;13.90;99.90;;;;;;4990571;28;20432;-78
2023/09/22 06:22:57;;;;;;;36.83;20.58;;;13.90;99.90;;;;;;4990686;28;20038;-78
2023/09/22 06:25:26;;;;;;;39.20;21.25;;;14.00;99.90;;;;;;4974365;28;20049;-78
2023/09/22 06:27:54;;;;;;;41.90;21.02;;;13.90;99.90;;;;;;4974386;28;20065;-78
2023/09/22 06:30:20;;;;;;;37.13;20.25;;;14.00;99.90;;;;;;4990265;28;20055;-79
2023/09/22 06:32:46;;;;;;;35.35;21.58;;;13.90;99.90;;;;;;4990827;28;20057;-78
2023/09/22 06:35:12;;;;;;;39.17;20.65;;;14.10;99.90;;;;;;4990399;28;20147;-79
2023/09/22 06:37:38;;;;;;;40.20;21.33;;;14.00;99.90;;;;;;4990527;28;20038;-78
2023/09/22 06:40:11;;;;;;;36.97;20.27;;;14.00;99.90;;;;;;4990339;28;20147;-78
2023/09/22 06:42:44;;;;;;;35.53;19.65;;;14.00;99.90;;;;;;4990903;28;20432;-77
2023/09/22 06:45:10;;;;;;;37.08;20.27;;;14.10;99.90;;;;;;4990514;28;20062;-78
2023/09/22 06:47:37;;;;;;;32.03;17.92;;;14.10;99.90;;;;;;4974111;28;20088;-79
2023/09/22 06:50:06;;;;;;;37.88;19.52;;;14.10;99.90;;;;;;4990226;28;20111;-77
2023/09/22 06:52:32;;;;;;;35.63;19.40;;;14.10;99.90;;;;;;4990151;28;20120;-77
2023/09/22 06:55:00;;;;;;;36.88;19.60;;;14.10;99.90;;;;;;4991166;28;20114;-78
2023/09/22 06:57:26;;;;;;;35.20;18.85;;;14.20;99.90;;;;;;4991301;28;20117;-79
2023/09/22 06:59:55;;;;;;;35.47;19.00;;;14.20;99.90;;;;;;4989983;28;20421;-78
2023/09/22 07:02:21;;;;;;;30.30;17.85;;;14.20;99.90;;;;;;4974010;28;20039;-79
2023/09/22 07:04:47;;;;;;;32.90;17.65;;;14.10;99.90;;;;;;4989974;28;20042;-78
2023/09/22 07:07:13;;;;;;;27.40;17.00;;;14.20;99.90;;;;;;4991205;28;20050;-78
2023/09/22 07:09:43;;;;;;;28.10;15.73;;;14.10;99.90;;;;;;4989602;28;20046;-78
2023/09/22 07:12:08;;;;;;;32.05;17.85;;;14.20;99.90;;;;;;4989972;28;20078;-78
2023/09/22 07:14:34;;;;;;;29.92;17.02;;;14.20;99.90;;;;;;4990058;28;20084;-78
2023/09/22 07:17:00;;;;;;;47.50;16.60;;;14.20;99.90;;;;;;4990074;28;20095;-78
2023/09/22 07:19:25;;;;;;;25.15;15.20;;;14.20;99.90;;;;;;4990765;28;20541;-78
2023/09/22 07:21:51;;;;;;;30.50;17.13;;;14.20;99.90;;;;;;4989759;28;20164;-78
2023/09/22 07:24:17;;;;;;;27.30;15.13;;;14.10;99.90;;;;;;4989448;28;20409;-79
2023/09/22 07:26:43;;;;;;;30.45;16.75;;;14.20;99.90;;;;;;4989631;28;20413;-78
2023/09/22 07:29:09;;;;;;;29.00;16.55;;;14.20;99.90;;;;;;4989363;28;20046;-78
2023/09/22 07:31:35;;;;;;;28.20;14.23;;;14.20;99.90;;;;;;4989908;28;20046;-78
2023/09/22 07:34:00;;;;;;;30.42;15.50;;;14.20;99.90;;;;;;4989614;28;20078;-79
2023/09/22 07:36:26;;;;;;;24.30;14.00;;;14.20;99.90;;;;;;4973374;28;20092;-78
2023/09/22 07:41:24;;;;;;;27.25;14.93;;;14.10;99.90;;;;;;5008501;28;20436;-75
2023/09/22 07:43:52;;;;;;;23.30;13.25;;;14.10;99.90;;;;;;5010353;28;20038;-75
2023/09/22 07:46:17;;;;;;;26.50;14.68;;;14.10;99.90;;;;;;4992565;28;20041;-74
2023/09/22 07:48:43;;;;;;;25.98;15.73;;;14.10;99.90;;;;;;5008642;28;20046;-75
2023/09/22 07:51:08;;;;;;;26.20;13.90;;;14.10;99.90;;;;;;5094749;28;20049;-74
2023/09/22 07:53:34;;;;;;;25.75;13.82;;;14.00;99.90;;;;;;5008757;28;20516;-74
2023/09/22 07:56:00;;;;;;;31.58;16.33;;;14.10;99.90;;;;;;5009030;28;20120;-74
2023/09/22 07:58:29;;;;;;;25.65;14.63;;;14.10;99.90;;;;;;5007903;28;20042;-74
2023/09/22 08:00:55;;;;;;;25.75;13.93;;;14.10;99.90;;;;;;5008115;28;20064;-75
2023/09/22 08:03:21;;;;;;;24.85;14.32;;;14.10;99.90;;;;;;5009527;28;20041;-75
2023/09/22 08:05:50;;;;;;;24.33;13.85;;;14.10;99.90;;;;;;5009057;28;20507;-75
2023/09/22 08:08:17;;;;;;;24.25;15.13;;;14.10;99.90;;;;;;5008624;28;20045;-75
2023/09/22 08:10:43;;;;;;;19.48;13.00;;;14.10;99.90;;;;;;5008312;28;20535;-75
2023/09/22 08:13:09;;;;;;;24.25;14.23;;;14.10;99.90;;;;;;5008532;28;20052;-75
2023/09/22 08:15:37;;;;;;;20.83;12.75;;;14.10;99.90;;;;;;5008548;28;20038;-73
2023/09/22 08:18:06;;;;;;;17.88;11.77;;;14.10;99.90;;;;;;4991983;28;20038;-73
2023/09/22 08:20:33;;;;;;;21.02;10.73;;;14.10;99.90;;;;;;5008303;28;20401;-72
2023/09/22 08:22:59;;;;;;;19.80;11.75;;;14.10;99.90;;;;;;5008561;28;20050;-73
2023/09/22 08:25:25;;;;;;;20.40;10.85;;;14.10;99.90;;;;;;5008597;28;20042;-73
2023/09/22 08:27:52;;;;;;;17.23;10.25;;;14.10;99.90;;;;;;5008920;28;20412;-72
2023/09/22 08:30:19;;;;;;;20.92;10.35;;;14.10;99.90;;;;;;5007402;28;20048;-73
2023/09/22 08:32:45;;;;;;;18.30;9.57;;;14.20;99.90;;;;;;5007865;28;20117;-73
2023/09/22 08:35:12;;;;;;;16.27;9.98;;;14.30;99.90;;;;;;5007106;28;20083;-72
2023/09/22 08:37:42;;;;;;;16.90;10.23;;;14.30;99.90;;;;;;4990994;28;20037;-72
2023/09/22 08:40:15;;;;;;;14.60;9.35;;;14.30;99.90;;;;;;5006534;28;20038;-73
2023/09/22 08:42:43;;;;;;;13.93;9.45;;;14.50;99.90;;;;;;5008145;28;20038;-75
2023/09/22 08:45:10;;;;;;;12.15;8.20;;;14.50;99.90;;;;;;4991505;28;20044;-75
2023/09/22 08:47:40;;;;;;;11.98;7.65;;;14.50;99.90;;;;;;5007437;28;20041;-74
2023/09/22 08:50:11;;;;;;;12.43;7.50;;;14.50;99.90;;;;;;5007424;28;20045;-74
2023/09/22 08:52:41;;;;;;;13.98;7.78;;;14.60;99.90;;;;;;5007447;28;20038;-75
2023/09/22 08:55:09;;;;;;;9.85;6.88;;;14.60;99.90;;;;;;5007992;28;20117;-74
2023/09/22 08:57:34;;;;;;;10.52;5.93;;;14.60;99.90;;;;;;5007857;28;20045;-74
2023/09/22 09:00:00;;;;;;;10.82;6.63;;;14.60;99.90;;;;;;5007022;28;20044;-74
2023/09/22 09:02:26;;;;;;;11.35;7.07;;;14.70;99.90;;;;;;5007426;28;20038;-75
2023/09/22 09:04:51;;;;;;;11.05;5.43;;;14.70;99.90;;;;;;5012382;28;20030;-74
2023/09/22 09:07:18;;;;;;;9.65;5.40;;;14.60;99.90;;;;;;5007747;28;20117;-75
2023/09/22 09:09:47;;;;;;;8.60;5.10;;;14.60;99.90;;;;;;4991299;28;20378;-74
2023/09/22 09:12:13;;;;;;;8.52;6.00;;;14.70;99.90;;;;;;5007706;28;20037;-72
2023/09/22 09:14:40;;;;;;;6.75;4.53;;;14.90;99.90;;;;;;5007821;28;20038;-72
2023/09/22 09:17:23;;;;;;;8.27;4.22;;;14.90;99.90;;;;;;5007598;28;20099;-72
2023/09/22 09:19:53;;;;;;;6.30;3.92;;;14.90;99.90;;;;;;5007239;28;20050;-75
2023/09/22 09:22:18;;;;;;;7.85;4.38;;;14.90;99.90;;;;;;5007553;28;20038;-75
2023/09/22 09:24:44;;;;;;;9.10;4.07;;;15.00;99.90;;;;;;5007740;28;20167;-75
2023/09/22 09:27:18;;;;;;;7.53;4.43;;;15.00;99.90;;;;;;5007301;28;20046;-75
2023/09/22 09:29:46;;;;;;;8.55;4.90;;;15.00;99.90;;;;;;4990716;28;20187;-75
2023/09/22 09:32:29;;;;;;;8.55;4.47;;;15.20;99.90;;;;;;5007306;28;20042;-75
2023/09/22 09:34:55;;;;;;;;;;;15.40;99.90;;;;;;5008108;28;20060;-74
2023/09/22 09:37:21;;;;;;;7.25;4.53;;;15.40;99.90;;;;;;5007289;28;19917;-75
2023/09/22 09:39:50;;;;;;;7.15;3.95;;;15.30;99.90;;;;;;5006549;28;20509;-75
2023/09/22 09:42:23;;;;;;;8.88;4.65;;;15.30;99.90;;;;;;5007529;28;20068;-75
2023/09/22 09:44:54;;;;;;;7.78;4.63;;;15.30;99.90;;;;;;5007210;28;20505;-74
2023/09/22 09:47:34;;;;;;;10.50;5.10;;;15.20;99.90;;;;;;5008204;28;20042;-74
2023/09/22 09:50:04;;;;;;;5.60;4.05;;;15.30;99.90;;;;;;5009972;28;20059;-74
2023/09/22 09:52:48;;;;;;;5.25;3.47;;;15.40;99.90;;;;;;5010684;28;20042;-75
2023/09/22 09:55:17;;;;;;;5.60;4.10;;;15.40;99.90;;;;;;4994274;28;20489;-75
2023/09/22 09:57:45;;;;;;;5.80;3.38;;;15.30;99.90;;;;;;4994387;28;20057;-75
2023/09/22 10:00:21;;;;;;;7.03;3.40;;;15.30;99.90;;;;;;5010063;28;20116;-75
2023/09/22 10:02:48;;;;;;;5.30;2.95;;;15.30;99.90;;;;;;5010628;28;20038;-75
2023/09/22 10:05:17;;;;;;;5.82;2.85;;;15.30;99.90;;;;;;4994421;28;20464;-75
2023/09/22 10:07:44;;;;;;;3.80;2.65;;;15.20;99.90;;;;;;5010360;28;20034;-74
2023/09/22 10:10:16;;;;;;;3.38;2.50;;;15.30;99.90;;;;;;5009993;28;20046;-75
2023/09/22 10:12:44;;;;;;;3.90;2.00;;;15.50;99.90;;;;;;5010315;28;20045;-75
2023/09/22 10:15:11;;;;;;;3.42;1.52;;;15.70;99.90;;;;;;4993916;28;20049;-75
2023/09/22 10:17:38;;;;;;;3.72;1.77;;;15.90;99.90;;;;;;5009798;28;20045;-75
2023/09/22 10:20:14;;;;;;;3.65;1.77;;;16.10;99.90;;;;;;4993470;28;20034;-75
2023/09/22 10:22:41;;;;;;;2.42;1.67;;;16.20;99.90;;;;;;5010218;28;20121;-75
2023/09/22 10:25:13;;;;;;;5.28;2.10;;;16.30;99.90;;;;;;5010069;28;20038;-75
2023/09/22 10:27:58;;;;;;;2.45;2.20;;;16.40;99.90;;;;;;5009770;28;20034;-74
2023/09/22 10:30:44;;;;;;;3.28;2.08;;;16.50;99.90;;;;;;5009499;28;20038;-75
2023/09/22 10:33:26;;;;;;;3.00;1.92;;;16.40;99.90;;;;;;5010106;28;20405;-75
2023/09/22 10:35:52;;;;;;;4.72;1.80;;;16.20;99.90;;;;;;5009792;28;20037;-75
2023/09/22 10:38:20;;;;;;;4.05;1.73;;;16.20;99.90;;;;;;5009572;28;20378;-72
2023/09/22 10:40:58;;;;;;;2.42;1.55;;;16.00;99.90;;;;;;5009092;28;20045;-74
2023/09/22 10:43:24;;;;;;;3.65;1.50;;;15.80;99.90;;;;;;5009053;28;20045;-75
2023/09/22 10:45:51;;;;;;;3.15;1.58;;;15.80;99.90;;;;;;4991450;28;20046;-75
2023/09/22 10:48:17;;;;;;;2.30;1.85;;;15.90;99.90;;;;;;5007536;28;20048;-75
2023/09/22 10:50:49;;;;;;;3.22;1.60;;;16.00;99.90;;;;;;5009112;28;20037;-75
2023/09/22 10:53:15;;;;;;;3.28;1.60;;;16.00;99.90;;;;;;5009149;28;20042;-74
2023/09/22 10:55:43;;;;;;;2.97;1.48;;;16.10;99.90;;;;;;5009241;28;20569;-74
2023/09/22 10:58:09;;;;;;;2.72;1.30;;;16.20;99.90;;;;;;5008918;28;20041;-75
2023/09/22 11:00:42;;;;;;;2.80;1.52;;;16.20;99.90;;;;;;4992296;28;20080;-74
2023/09/22 11:03:14;;;;;;;2.22;1.63;;;16.40;99.90;;;;;;5009785;28;20053;-74
2023/09/22 11:05:42;;;;;;;2.92;1.80;;;16.40;99.90;;;;;;4993201;28;20034;-74
2023/09/22 11:08:15;;;;;;;2.22;1.67;;;16.50;99.90;;;;;;5009488;28;20067;-75
2023/09/22 11:10:43;;;;;;;2.63;1.90;;;16.60;99.90;;;;;;5008935;28;20052;-75
2023/09/22 11:13:09;;;;;;;3.83;1.80;;;16.70;99.90;;;;;;5009494;28;20038;-75
2023/09/22 11:15:45;;;;;;;4.25;1.90;;;16.60;99.90;;;;;;5009360;28;20099;-73
2023/09/22 11:18:18;;;;;;;4.93;1.80;;;16.50;99.90;;;;;;5002574;28;20487;-73
2023/09/22 11:20:44;;;;;;;2.53;1.73;;;16.50;99.90;;;;;;4992104;28;20482;-73
2023/09/22 11:23:09;;;;;;;4.60;1.98;;;16.50;99.90;;;;;;5001059;28;20080;-72
2023/09/22 11:25:35;;;;;;;3.33;1.80;;;16.50;99.90;;;;;;5005214;28;20031;-72
2023/09/22 11:28:00;;;;;;;2.25;1.77;;;16.60;99.90;;;;;;5006459;28;20570;-72
2023/09/22 11:30:26;;;;;;;4.63;1.63;;;16.70;99.90;;;;;;5009254;28;20049;-75
2023/09/22 11:32:53;;;;;;;2.15;1.90;;;16.70;99.90;;;;;;5009244;28;20504;-74
2023/09/22 11:35:39;;;;;;;2.58;1.58;;;16.70;99.90;;;;;;5009113;28;20516;-72
2023/09/22 11:38:27;;;;;;;3.03;1.75;;;16.80;99.90;;;;;;4993084;28;20038;-72
2023/09/22 11:41:13;;;;;;;2.78;1.90;;;16.70;99.90;;;;;;5009023;28;20087;-72
2023/09/22 11:43:52;;;;;;;3.03;1.65;;;16.60;99.90;;;;;;5008999;28;20535;-72
2023/09/22 11:46:27;;;;;;;4.47;1.92;;;16.50;99.90;;;;;;4992708;28;20562;-75
2023/09/22 11:48:56;;;;;;;4.07;1.83;;;16.50;99.90;;;;;;5009685;28;20045;-74
2023/09/22 11:51:22;;;;;;;3.55;1.80;;;16.40;99.90;;;;;;5008926;28;20042;-74
2023/09/22 11:53:48;;;;;;;2.03;1.75;;;16.50;99.90;;;;;;5009375;28;20477;-73
2023/09/22 11:56:14;;;;;;;2.55;2.03;;;16.40;99.90;;;;;;5008867;28;20081;-73
2023/09/22 11:58:40;;;;;;;4.75;1.85;;;16.40;99.90;;;;;;5009753;28;20093;-73
2023/09/22 12:01:06;;;;;;;4.70;1.60;;;16.40;99.90;;;;;;5009701;28;20049;-73
2023/09/22 12:03:34;;;;;;;3.90;2.00;;;16.40;99.90;;;;;;5008590;28;20037;-71
2023/09/22 12:06:02;;;;;;;2.28;2.08;;;16.40;99.90;;;;;;5008867;28;20438;-71
2023/09/22 12:08:29;;;;;;;3.17;2.13;;;16.20;99.90;;;;;;4992249;28;20119;-71
2023/09/22 12:10:55;;;;;;;3.08;2.13;;;16.20;99.90;;;;;;5008315;28;20563;-70
2023/09/22 12:13:20;;;;;;;4.80;2.00;;;16.20;99.90;;;;;;5007513;28;20117;-70
2023/09/22 12:15:46;;;;;;;3.45;2.35;;;16.20;99.90;;;;;;5008419;28;20046;-71
2023/09/22 12:18:11;;;;;;;3.03;1.88;;;16.20;99.90;;;;;;5008170;28;20052;-71
2023/09/22 12:20:37;;;;;;;2.60;2.00;;;16.20;99.90;;;;;;5009461;28;20045;-72
2023/09/22 12:23:02;;;;;;;9.48;2.20;;;16.30;99.90;;;;;;5009725;28;20049;-72
2023/09/22 12:25:28;;;;;;;2.15;1.92;;;16.40;99.90;;;;;;4992237;28;20041;-72
2023/09/22 12:27:54;;;;;;;4.57;2.03;;;16.40;99.90;;;;;;4992178;28;20053;-72
2023/09/22 12:30:19;;;;;;;2.65;1.58;;;16.50;99.90;;;;;;5008163;28;20213;-71
2023/09/22 12:32:45;;;;;;;2.47;1.70;;;16.40;99.90;;;;;;5009102;28;20053;-71
2023/09/22 12:35:11;;;;;;;2.10;1.70;;;16.40;99.90;;;;;;5008397;28;20049;-72
2023/09/22 12:37:36;;;;;;;4.15;2.00;;;16.30;99.90;;;;;;5008050;28;20568;-71
2023/09/22 12:40:04;;;;;;;2.58;1.88;;;16.30;99.90;;;;;;5008990;28;20037;-72